createdAt,value
2022-10-01T00:00:14.952Z,19.90
2022-10-01T00:05:38.130Z,21.90
2022-10-01T00:10:43.541Z,19.90
2022-10-01T00:15:47.690Z,20.40
2022-10-01T00:20:50.990Z,18.90
2022-10-01T00:25:54.224Z,18.70
2022-10-01T00:30:57.844Z,19.70
2022-10-01T00:36:01.257Z,19.90
2022-10-01T00:41:05.400Z,21.70
2022-10-01T00:46:21.393Z,21.20
2022-10-01T00:51:28.898Z,18.50
2022-10-01T00:56:33.236Z,17.70
2022-10-01T01:01:38.495Z,20.70
2022-10-01T01:06:56.126Z,19.40
2022-10-01T01:12:05.155Z,19.70
2022-10-01T01:17:18.139Z,19.00
2022-10-01T01:22:26.576Z,19.20
2022-10-01T01:27:38.699Z,20.70
2022-10-01T01:33:04.912Z,21.20
2022-10-01T01:38:14.800Z,21.40
2022-10-01T01:43:24.461Z,20.10
2022-10-01T01:48:29.578Z,21.40
2022-10-01T01:53:32.857Z,19.60
2022-10-01T01:58:38.229Z,20.60
2022-10-01T02:03:42.058Z,19.00
2022-10-01T02:08:54.739Z,19.90
2022-10-01T02:14:43.305Z,19.20
2022-10-01T02:20:00.723Z,19.60
2022-10-01T02:25:06.509Z,20.60
2022-10-01T02:30:11.981Z,20.90
2022-10-01T02:35:19.311Z,21.30
2022-10-01T02:40:26.543Z,20.10
2022-10-01T02:45:33.697Z,19.00
2022-10-01T02:50:51.555Z,17.50
2022-10-01T02:55:58.683Z,18.00
2022-10-01T03:01:02.576Z,17.20
2022-10-01T03:06:06.279Z,16.90
2022-10-01T03:11:09.561Z,19.90
2022-10-01T03:16:13.042Z,21.70
2022-10-01T03:21:16.197Z,25.20
2022-10-01T03:26:19.367Z,22.20
2022-10-01T03:31:22.629Z,20.00
2022-10-01T03:36:25.903Z,22.60
2022-10-01T03:41:29.011Z,22.80
2022-10-01T03:46:32.331Z,22.90
2022-10-01T03:51:37.743Z,25.40
2022-10-01T03:56:42.892Z,27.20
2022-10-01T04:01:46.359Z,27.00
2022-10-01T04:06:49.688Z,27.80
2022-10-01T04:11:53.045Z,25.20
2022-10-01T04:16:56.318Z,24.90
2022-10-01T04:21:59.779Z,26.10
2022-10-01T04:27:02.983Z,26.10
2022-10-01T04:32:06.246Z,26.30
2022-10-01T04:37:09.798Z,27.00
2022-10-01T04:42:13.661Z,28.60
2022-10-01T04:47:16.836Z,30.30
2022-10-01T04:52:20.018Z,30.70
2022-10-01T04:57:23.200Z,31.00
2022-10-01T05:02:26.362Z,32.10
2022-10-01T05:07:32.472Z,30.50
2022-10-01T05:12:35.695Z,31.60
2022-10-01T05:17:39.091Z,34.30
2022-10-01T05:22:42.250Z,35.20
2022-10-01T05:27:46.195Z,32.20
2022-10-01T05:33:00.316Z,37.80
2022-10-01T05:38:04.140Z,34.10
2022-10-01T05:43:07.284Z,26.50
2022-10-01T05:48:10.903Z,19.40
2022-10-01T05:53:16.335Z,17.20
2022-10-01T05:58:19.502Z,17.80
2022-10-01T06:03:22.912Z,17.00
2022-10-01T06:08:26.911Z,17.70
2022-10-01T06:13:30.781Z,16.80
2022-10-01T06:18:33.960Z,16.60
2022-10-01T06:23:37.160Z,15.90
2022-10-01T06:28:40.382Z,13.40
2022-10-01T06:33:46.144Z,17.10
2022-10-01T06:38:49.859Z,13.40
2022-10-01T06:43:53.059Z,12.00
2022-10-01T06:48:56.135Z,13.40
2022-10-01T06:53:59.268Z,13.50
2022-10-01T06:59:03.905Z,13.50
2022-10-01T07:04:07.455Z,11.60
2022-10-01T07:09:10.641Z,12.60
2022-10-01T07:14:13.959Z,10.10
2022-10-01T07:19:17.095Z,9.60
2022-10-01T07:24:20.457Z,9.10
2022-10-01T07:29:27.535Z,10.90
2022-10-01T07:34:33.381Z,9.10
2022-10-01T07:39:37.087Z,9.00
2022-10-01T07:44:40.242Z,12.80
2022-10-01T07:49:43.412Z,10.20
2022-10-01T07:54:48.308Z,10.70
2022-10-01T07:59:55.666Z,9.40
2022-10-01T08:05:17.986Z,6.80
2022-10-01T08:10:23.489Z,7.10
2022-10-01T08:15:27.340Z,8.10
2022-10-01T08:20:31.713Z,8.30
2022-10-01T08:25:35.289Z,7.00
2022-10-01T08:30:40.417Z,7.50
2022-10-01T08:35:46.617Z,8.50
2022-10-01T08:40:51.877Z,8.80
2022-10-01T08:46:00.817Z,6.60
2022-10-01T08:51:06.373Z,5.50
2022-10-01T08:56:23.599Z,6.70
2022-10-01T09:01:27.494Z,8.00
2022-10-01T09:06:30.648Z,7.00
2022-10-01T09:11:56.118Z,5.90
2022-10-01T09:17:21.454Z,6.20
2022-10-01T09:22:26.349Z,5.80
2022-10-01T09:27:29.828Z,6.30
2022-10-01T09:32:45.631Z,5.80
2022-10-01T09:38:16.019Z,6.10
2022-10-01T09:43:22.262Z,6.10
2022-10-01T09:48:48.013Z,4.40
2022-10-01T09:54:13.435Z,6.60
2022-10-01T09:59:27.377Z,6.80
2022-10-01T10:04:33.574Z,5.80
2022-10-01T10:09:37.604Z,4.40
2022-10-01T10:14:41.520Z,5.00
2022-10-01T10:19:52.363Z,5.90
2022-10-01T10:25:05.564Z,6.20
2022-10-01T10:30:17.903Z,5.70
2022-10-01T10:35:26.459Z,5.40
2022-10-01T10:40:43.657Z,5.00
2022-10-01T10:45:48.974Z,5.30
2022-10-01T10:51:00.772Z,5.80
2022-10-01T10:56:06.778Z,5.00
2022-10-01T11:01:16.565Z,5.00
2022-10-01T11:06:20.709Z,5.50
2022-10-01T11:11:43.022Z,5.70
2022-10-01T11:16:58.358Z,5.60
2022-10-01T11:22:29.695Z,5.10
2022-10-01T11:27:39.845Z,5.10
2022-10-01T11:32:51.937Z,4.70
2022-10-01T11:38:00.126Z,5.10
2022-10-01T11:43:19.017Z,5.50
2022-10-01T11:48:51.429Z,5.80
2022-10-01T11:54:10.789Z,5.10
2022-10-01T11:59:52.078Z,5.50
2022-10-01T12:05:17.879Z,4.80
2022-10-01T12:10:55.252Z,5.20
2022-10-01T12:16:21.381Z,4.70
2022-10-01T12:21:37.137Z,6.00
2022-10-01T12:27:01.746Z,6.70
2022-10-01T12:32:08.125Z,6.60
2022-10-01T12:37:30.067Z,6.40
2022-10-01T12:42:53.892Z,6.50
2022-10-01T12:48:09.635Z,6.30
2022-10-01T12:53:31.262Z,6.30
2022-10-01T12:58:44.485Z,6.60
2022-10-01T13:04:03.203Z,5.70
2022-10-01T13:09:06.972Z,6.10
2022-10-01T13:14:18.343Z,6.80
2022-10-01T13:19:52.522Z,6.40
2022-10-01T13:25:41.005Z,6.50
2022-10-01T13:30:52.853Z,6.20
2022-10-01T13:36:01.289Z,5.80
2022-10-01T13:41:08.111Z,5.50
2022-10-01T13:46:12.724Z,4.30
2022-10-01T13:51:16.555Z,4.90
2022-10-01T13:56:37.243Z,4.20
2022-10-01T14:01:43.497Z,5.80
2022-10-01T14:07:22.468Z,5.00
2022-10-01T14:12:50.752Z,5.20
2022-10-01T14:17:56.364Z,4.90
2022-10-01T14:23:13.344Z,4.90
2022-10-01T14:28:40.311Z,4.80
2022-10-01T14:33:49.444Z,5.50
2022-10-01T14:39:15.024Z,5.00
2022-10-01T14:44:23.241Z,5.00
2022-10-01T14:49:32.629Z,4.20
2022-10-01T14:55:07.362Z,5.60
2022-10-01T15:00:19.522Z,4.30
2022-10-01T15:05:34.394Z,4.90
2022-10-01T15:10:51.948Z,4.90
2022-10-01T15:15:56.495Z,5.30
2022-10-01T15:21:06.131Z,6.20
2022-10-01T15:26:14.023Z,5.90
2022-10-01T15:31:17.518Z,5.60
2022-10-01T15:36:20.838Z,5.70
2022-10-01T15:41:33.042Z,6.20
2022-10-01T15:46:36.835Z,6.20
2022-10-01T15:52:07.055Z,6.50
2022-10-01T15:57:20.634Z,6.60
2022-10-01T16:02:30.777Z,6.10
2022-10-01T16:07:35.575Z,7.10
2022-10-01T16:12:39.313Z,7.10
2022-10-01T16:17:55.125Z,6.50
2022-10-01T16:23:36.117Z,9.10
2022-10-01T16:28:39.403Z,8.40
2022-10-01T16:33:42.489Z,9.30
2022-10-01T16:38:46.368Z,7.80
2022-10-01T16:43:52.092Z,8.40
2022-10-01T16:48:55.484Z,8.40
2022-10-01T16:54:00.347Z,8.60
2022-10-01T16:59:03.783Z,8.60
2022-10-01T17:04:11.910Z,8.50
2022-10-01T17:09:15.078Z,9.70
2022-10-01T17:14:22.037Z,7.90
2022-10-01T17:19:27.039Z,7.70
2022-10-01T17:24:30.214Z,6.90
2022-10-01T17:29:33.820Z,7.80
2022-10-01T17:34:37.635Z,8.50
2022-10-01T17:39:43.289Z,8.50
2022-10-01T17:44:46.609Z,6.90
2022-10-01T17:49:49.677Z,7.90
2022-10-01T17:54:52.824Z,8.90
2022-10-01T17:59:55.974Z,7.50
2022-10-01T18:04:59.275Z,6.90
2022-10-01T18:10:02.396Z,7.90
2022-10-01T18:15:06.238Z,8.30
2022-10-01T18:20:09.751Z,7.50
2022-10-01T18:25:16.261Z,8.10
2022-10-01T18:30:20.402Z,9.00
2022-10-01T18:35:33.883Z,8.90
2022-10-01T18:40:42.875Z,9.60
2022-10-01T18:46:06.895Z,9.30
2022-10-01T18:51:22.606Z,8.70
2022-10-01T18:56:31.917Z,9.00
2022-10-01T19:02:01.543Z,9.00
2022-10-01T19:07:20.142Z,10.30
2022-10-01T19:12:47.087Z,9.50
2022-10-01T19:18:05.131Z,9.10
2022-10-01T19:23:17.492Z,10.00
2022-10-01T19:28:46.028Z,10.30
2022-10-01T19:33:57.116Z,10.50
2022-10-01T19:39:05.186Z,9.50
2022-10-01T19:44:27.594Z,8.70
2022-10-01T19:49:38.923Z,10.70
2022-10-01T19:54:47.687Z,7.50
2022-10-01T19:59:54.665Z,10.20
2022-10-01T20:05:16.686Z,9.80
2022-10-01T20:10:34.211Z,11.80
2022-10-01T20:15:55.468Z,10.40
2022-10-01T20:21:19.986Z,9.20
2022-10-01T20:26:40.434Z,10.90
2022-10-01T20:32:13.589Z,12.00
2022-10-01T20:37:37.788Z,12.40
2022-10-01T20:42:47.274Z,11.70
2022-10-01T20:48:06.061Z,12.10
2022-10-01T20:53:17.699Z,10.90
2022-10-01T20:58:24.222Z,11.40
2022-10-01T21:03:36.548Z,12.50
2022-10-01T21:08:57.591Z,12.10
2022-10-01T21:14:38.638Z,10.50
2022-10-01T21:20:13.445Z,10.10
2022-10-01T21:25:34.743Z,10.30
2022-10-01T21:30:44.809Z,9.40
2022-10-01T21:35:51.138Z,6.20
2022-10-01T21:40:58.611Z,4.50
2022-10-01T21:46:20.604Z,5.60
2022-10-01T21:52:02.873Z,4.90
2022-10-01T21:57:41.728Z,4.20
2022-10-01T22:02:58.201Z,4.00
2022-10-01T22:08:19.030Z,4.40
2022-10-01T22:13:27.583Z,4.80
2022-10-01T22:18:41.046Z,3.70
2022-10-01T22:23:58.382Z,4.70
2022-10-01T22:29:07.054Z,4.80
2022-10-01T22:34:15.177Z,4.50
2022-10-01T22:39:23.472Z,4.10
2022-10-01T22:44:28.946Z,2.90
2022-10-01T22:49:50.195Z,3.40
2022-10-01T22:55:37.179Z,4.40
2022-10-01T23:01:12.711Z,4.30
2022-10-01T23:06:28.991Z,3.70
2022-10-01T23:11:47.242Z,4.10
2022-10-01T23:17:22.932Z,5.30
2022-10-01T23:22:43.996Z,4.70
2022-10-01T23:28:08.058Z,5.10
2022-10-01T23:33:28.502Z,5.60
2022-10-01T23:38:31.555Z,3.90
2022-10-01T23:43:44.357Z,6.10
2022-10-01T23:49:12.952Z,5.70
2022-10-01T23:54:28.129Z,6.00
2022-10-01T23:59:41.766Z,8.30
